Aérodrome :







RETROUVEZ-NOUS SUR...

 
LOGIN :

S'inscrire | Disclaimer

   EN    FR    IT 

 









Légende :    VFR   VFR Marginal   IFR   IFR Intensif   IFR Très Intensif
Visi : 
Plafond : 
>= 8 km
>= 3000ft
5 à 8 km
1000 à 3000 ft
1500m à 5 km
500 à 1000 ft
800 à 1500m
200 à 500 ft
< 800m
< 200 ft
Symboles :   Orages  Brouillard  Fortes neiges  Fortes précipitations  Vent > 20 kt






- Altitude de l'aérodrome : 328 ft


KGFL - Floyd Bennett Memorial

DERNIER METAR :
  • 280053Z AUTO 21008KT 10SM CLR 26/14 A3010 RMK AO2 SLP189 T02560139

METARs EXPIRÉS :
  • 272353Z AUTO 19008KT 10SM CLR 27/14 A3008 RMK AO2 SLP183 T02670144 10311 20267 53005
  • 272253Z AUTO 20010KT 10SM CLR 29/14 A3007 RMK AO2 SLP177 T02890144

TAF KGFL
Valide du 28 à 00h jusqu'au 29 à 00h UTC


272332Z 2800/2824 19007KT P6SM SCT100 SCT250
FM280400 19005KT P6SM SCT045 SCT100
TEMPO 2809/2813 BKN020
FM281500 19006KT P6SM VCSH BKN030 BKN050
PROB30 2818/2824 4SM -SHRA OVC025
FIR KZBW / Amérique du Nord



MET'MAP, la Météo Aéronautique d'un coup d'oeil ! - Copyright ORBIFLY Décembre 2007 - Disclaimer

ORBIFLY MET'MAP TEAM :

Programmation & Développement : Alexandra Zaïnal
Sur une idée originale de : Baudouin d'Aumeries
Assistance à la programmation : Marc-Olivier Méhu
Soutien technique & logistique : Manuel Goepfert

Contact : metmap@orbifly.com




SOURCES & CREDITS :

   NOAA